Time;durP1;ratioP1;P1;durP2;ratioP2;P2;SDS_P1;SDS_P2;PMS_P1;PMS_P2;Temp;Humidity;BMP_temperature;BMP_pressure;BME280_temperature;BME280_humidity;BME280_pressure;Samples;Min_cycle;Max_cycle;Signal;HPM_P1;HPM_P2
2023/07/07 00:00:01;;;;;;;14.77;6.90;;;;;;;27.57;46.26;98471.91;4918739;29;20043;-75
2023/07/07 00:02:27;;;;;;;11.95;8.23;;;;;;;27.57;45.96;98477.28;4886662;29;20068;-75
2023/07/07 00:04:52;;;;;;;14.38;6.72;;;;;;;27.58;46.16;98468.19;4911025;29;20028;-75
2023/07/07 00:07:18;;;;;;;9.70;6.50;;;;;;;27.56;46.31;98470.31;4898823;29;20539;-75
2023/07/07 00:09:43;;;;;;;8.55;5.85;;;;;;;27.53;46.30;98460.06;4925440;29;20066;-75
2023/07/07 00:12:09;;;;;;;7.32;5.10;;;;;;;27.55;46.36;98465.19;4909060;29;20087;-75
2023/07/07 00:14:34;;;;;;;9.40;4.68;;;;;;;27.52;46.14;98466.44;4906723;29;20468;-75
2023/07/07 00:17:01;;;;;;;7.80;4.50;;;;;;;27.48;46.59;98464.47;4899715;29;20032;-75
2023/07/07 00:19:28;;;;;;;7.32;4.40;;;;;;;27.42;46.51;98467.03;4899844;29;20039;-74
2023/07/07 00:21:58;;;;;;;8.40;4.20;;;;;;;27.41;46.61;98457.34;4899591;29;20043;-74
2023/07/07 00:24:25;;;;;;;7.00;4.65;;;;;;;27.40;46.78;98455.72;4915097;29;20479;-74
2023/07/07 00:26:51;;;;;;;9.73;4.00;;;;;;;27.39;46.73;98459.47;4899774;29;20111;-75
2023/07/07 00:29:16;;;;;;;6.50;4.40;;;;;;;27.35;47.07;98457.47;4899493;29;20036;-74
2023/07/07 00:31:42;;;;;;;7.78;4.43;;;;;;;27.35;47.12;98454.81;4899512;29;20104;-75
2023/07/07 00:34:07;;;;;;;8.93;4.20;;;;;;;27.31;47.30;98461.66;4899265;29;20044;-74
2023/07/07 00:36:33;;;;;;;6.15;4.03;;;;;;;27.31;47.28;98467.03;4915534;29;20107;-75
2023/07/07 00:38:58;;;;;;;7.75;4.32;;;;;;;27.27;47.06;98466.66;4915129;29;20500;-74
2023/07/07 00:41:24;;;;;;;9.85;4.03;;;;;;;27.23;47.46;98460.13;4915436;29;20079;-74
2023/07/07 00:44:00;;;;;;;5.82;3.97;;;;;;;27.18;47.30;98455.44;4898998;29;20515;-74
2023/07/07 00:46:26;;;;;;;5.15;4.20;;;;;;;27.14;47.36;98459.66;4914961;29;20084;-74
2023/07/07 00:48:51;;;;;;;9.20;4.40;;;;;;;27.14;47.63;98462.34;4915239;29;20516;-73
2023/07/07 00:51:21;;;;;;;7.00;4.10;;;;;;;27.07;47.50;98459.78;4899192;29;20048;-74
2023/07/07 00:53:48;;;;;;;5.85;4.18;;;;;;;27.04;47.19;98454.03;4904126;29;20028;-74
2023/07/07 00:56:17;;;;;;;8.40;4.32;;;;;;;27.06;47.10;98452.78;4899039;29;20028;-74
2023/07/07 00:58:42;;;;;;;5.20;4.18;;;;;;;27.05;47.38;98459.16;4899108;29;20431;-74
2023/07/07 01:01:17;;;;;;;11.13;4.18;;;;;;;26.98;47.79;98452.28;4883150;29;20047;-74
2023/07/07 01:03:51;;;;;;;8.43;4.10;;;;;;;27.00;47.67;98464.41;4899102;29;20530;-74
2023/07/07 01:06:21;;;;;;;10.15;4.78;;;;;;;26.97;47.69;98451.47;4899086;29;20028;-73
2023/07/07 01:08:48;;;;;;;9.07;3.92;;;;;;;26.97;47.74;98459.50;4915083;29;20028;-72
2023/07/07 01:11:17;;;;;;;5.75;4.07;;;;;;;26.97;47.42;98450.66;4899069;29;20040;-74
2023/07/07 01:13:43;;;;;;;5.90;4.13;;;;;;;27.00;47.45;98459.06;4914824;29;20032;-74
2023/07/07 01:16:33;;;;;;;6.75;4.53;;;;;;;26.98;47.28;98455.78;4899170;29;20391;-73
2023/07/07 01:19:15;;;;;;;9.77;4.47;;;;;;;26.98;47.42;98463.00;4915813;29;20032;-74
2023/07/07 01:22:02;;;;;;;7.10;4.55;;;;;;;26.97;47.57;98464.88;4915479;29;20484;-74
2023/07/07 01:24:38;;;;;;;8.68;4.60;;;;;;;26.94;47.97;98459.16;4918542;29;20079;-74
2023/07/07 01:27:04;;;;;;;4.75;3.85;;;;;;;26.93;47.83;98454.84;4918559;29;20090;-74
2023/07/07 01:29:39;;;;;;;8.68;4.30;;;;;;;26.94;47.37;98448.44;4928564;29;20515;-74
2023/07/07 01:32:08;;;;;;;5.85;3.80;;;;;;;26.95;47.41;98453.56;4921438;29;20144;-74
2023/07/07 01:34:34;;;;;;;8.25;4.25;;;;;;;26.94;47.15;98449.25;4906107;29;20031;-74
2023/07/07 01:36:59;;;;;;;7.65;3.85;;;;;;;26.96;47.37;98451.69;4905761;29;20032;-73
2023/07/07 01:39:25;;;;;;;9.18;4.65;;;;;;;26.95;46.95;98461.59;4921361;29;20479;-74
2023/07/07 01:41:52;;;;;;;29.00;20.23;;;;;;;26.95;47.07;98448.22;4905410;29;20044;-74
2023/07/07 01:44:59;;;;;;;44.75;34.22;;;;;;;26.93;47.25;98438.78;4938030;29;20031;-75
2023/07/07 01:47:35;;;;;;;27.52;20.95;;;;;;;26.85;47.54;98443.44;4924582;29;20078;-75
2023/07/07 01:50:12;;;;;;;29.95;20.95;;;;;;;26.86;47.75;98447.72;4921544;29;20032;-75
2023/07/07 01:52:51;;;;;;;21.42;15.63;;;;;;;26.84;47.49;98452.50;4889757;29;20133;-74
2023/07/07 01:55:22;;;;;;;23.27;15.75;;;;;;;26.81;47.52;98450.28;4905939;29;20044;-74
2023/07/07 01:57:51;;;;;;;12.15;9.52;;;;;;;26.84;47.69;98449.81;4906120;29;20380;-74
2023/07/07 02:00:16;;;;;;;10.93;8.10;;;;;;;26.81;47.43;98450.28;4905459;29;20039;-74
2023/07/07 02:02:42;;;;;;;10.30;5.63;;;;;;;26.80;47.60;98445.97;4905003;29;20130;-74
2023/07/07 02:05:10;;;;;;;7.35;5.95;;;;;;;26.74;47.28;98441.56;4920809;29;20054;-74
2023/07/07 02:07:35;;;;;;;7.63;5.75;;;;;;;26.83;47.49;98450.06;4905184;29;20035;-74
2023/07/07 02:10:00;;;;;;;6.78;4.47;;;;;;;26.82;46.95;98441.22;4920964;29;20562;-74
2023/07/07 02:12:26;;;;;;;5.30;4.00;;;;;;;26.84;46.52;98444.47;4889715;29;20036;-74
2023/07/07 02:14:51;;;;;;;5.82;3.90;;;;;;;26.84;46.63;98428.41;4920790;29;20427;-75
2023/07/07 02:17:18;;;;;;;5.47;3.53;;;;;;;26.81;46.65;98438.75;4904754;29;20106;-75
2023/07/07 02:19:44;;;;;;;5.47;3.30;;;;;;;26.82;46.33;98441.22;4920792;29;20055;-74
2023/07/07 02:22:09;;;;;;;5.38;3.42;;;;;;;26.81;46.32;98438.75;4920557;29;20110;-73
2023/07/07 02:24:35;;;;;;;5.32;3.50;;;;;;;26.78;46.39;98442.72;4920765;29;20046;-74
2023/07/07 02:27:01;;;;;;;6.25;3.40;;;;;;;26.74;46.52;98444.22;4920325;29;20047;-74
2023/07/07 02:29:27;;;;;;;5.07;3.30;;;;;;;26.77;46.62;98445.63;4905011;29;20031;-72
2023/07/07 02:31:52;;;;;;;5.03;3.17;;;;;;;26.73;46.95;98445.25;4888983;29;20043;-73
2023/07/07 02:34:18;;;;;;;5.30;3.30;;;;;;;26.68;46.84;98448.63;4919318;29;20028;-74
2023/07/07 02:36:43;;;;;;;6.65;3.40;;;;;;;26.69;47.00;98446.75;4904991;29;20047;-74
2023/07/07 02:39:09;;;;;;;8.35;3.80;;;;;;;26.66;46.66;98449.88;4920203;29;20408;-75
2023/07/07 02:41:34;;;;;;;6.53;3.55;;;;;;;26.68;47.02;98453.19;4904538;29;20078;-74
2023/07/07 02:43:59;;;;;;;7.65;3.38;;;;;;;26.66;46.86;98453.41;4937008;29;20032;-74
2023/07/07 02:46:25;;;;;;;5.72;3.50;;;;;;;26.63;46.90;98444.97;4920159;29;20056;-74
2023/07/07 02:48:50;;;;;;;4.57;3.40;;;;;;;26.62;47.19;98446.03;4920094;29;20502;-76
2023/07/07 02:51:16;;;;;;;5.15;3.53;;;;;;;26.62;47.16;98457.53;4904642;29;20467;-76
2023/07/07 02:53:41;;;;;;;4.03;3.20;;;;;;;26.63;47.33;98455.66;4919881;29;20063;-75
2023/07/07 02:56:07;;;;;;;5.68;3.75;;;;;;;26.58;47.62;98461.69;4920229;29;20066;-76
2023/07/07 02:58:32;;;;;;;4.95;3.47;;;;;;;26.57;47.37;98457.41;4919898;29;20066;-75
2023/07/07 03:01:09;;;;;;;5.20;3.33;;;;;;;26.62;47.38;98468.25;4904262;29;20090;-76
2023/07/07 03:03:35;;;;;;;6.70;3.50;;;;;;;26.69;47.01;98465.50;4921079;29;20128;-76
2023/07/07 03:06:08;;;;;;;6.93;3.58;;;;;;;26.80;47.14;98467.38;4904229;29;20044;-84
2023/07/07 03:08:34;;;;;;;5.45;3.30;;;;;;;27.06;46.31;98462.69;4920308;29;20121;-75
2023/07/07 03:11:07;;;;;;;6.05;3.63;;;;;;;27.46;45.90;98467.38;4935280;29;20044;-71
2023/07/07 03:13:32;;;;;;;12.30;3.28;;;;;;;27.84;46.25;98473.31;4919506;29;20384;-71
2023/07/07 03:15:58;;;;;;;10.68;3.58;;;;;;;28.15;44.53;98469.41;4920200;29;20051;-72
2023/07/07 03:18:23;;;;;;;8.77;3.38;;;;;;;28.38;43.48;98467.69;4919547;29;20043;-72
2023/07/07 03:20:49;;;;;;;10.75;3.95;;;;;;;28.61;43.64;98467.63;4903964;29;20039;-87
2023/07/07 03:23:14;;;;;;;15.80;3.45;;;;;;;28.84;42.87;98481.97;4904320;29;20036;-75
2023/07/07 03:25:40;;;;;;;24.42;15.70;;;;;;;29.10;42.44;98477.84;4919642;29;20115;-74
2023/07/07 03:28:06;;;;;;;28.52;19.80;;;;;;;29.22;41.52;98475.09;4903751;29;20027;-74
2023/07/07 03:30:34;;;;;;;14.98;8.15;;;;;;;28.82;42.90;98474.16;4923618;29;20035;-75
2023/07/07 03:32:59;;;;;;;10.57;5.93;;;;;;;28.75;42.97;98473.50;4889428;29;20084;-78
2023/07/07 03:35:25;;;;;;;24.70;12.00;;;;;;;28.94;42.59;98476.78;4910560;29;20479;-74
2023/07/07 03:37:50;;;;;;;15.88;7.57;;;;;;;29.60;42.47;98470.81;4934641;29;20043;-73
2023/07/07 03:40:16;;;;;;;15.63;7.05;;;;;;;30.24;41.02;98480.28;4919212;29;20098;-73
2023/07/07 03:42:42;;;;;;;25.92;7.15;;;;;;;30.39;40.98;98477.75;4919207;29;20066;-72
2023/07/07 03:45:07;;;;;;;16.17;6.13;;;;;;;30.18;40.76;98478.59;4903152;29;20055;-77
2023/07/07 03:47:33;;;;;;;15.65;6.20;;;;;;;30.09;40.10;98488.97;4919251;29;20032;-72
2023/07/07 03:49:59;;;;;;;16.70;4.90;;;;;;;29.99;39.06;98495.03;4935996;29;20040;-72
2023/07/07 03:52:25;;;;;;;16.25;3.95;;;;;;;29.90;39.80;98485.78;4903288;29;20479;-71
2023/07/07 03:54:50;;;;;;;11.57;4.00;;;;;;;29.88;40.41;98494.09;4935796;29;20047;-77
2023/07/07 03:57:16;;;;;;;20.70;4.38;;;;;;;29.74;40.80;98493.59;4903056;29;20032;-69
2023/07/07 03:59:41;;;;;;;7.82;4.10;;;;;;;29.68;40.56;98491.09;4935728;29;20039;-70
2023/07/07 04:02:07;;;;;;;15.20;3.83;;;;;;;29.57;40.35;98492.81;4936217;29;20032;-68
2023/07/07 04:04:32;;;;;;;10.20;3.90;;;;;;;29.44;40.53;98493.19;4935457;29;20555;-69
2023/07/07 04:06:58;;;;;;;14.07;3.60;;;;;;;29.36;40.85;98494.41;4935782;29;20403;-68
2023/07/07 04:09:23;;;;;;;9.60;3.60;;;;;;;29.30;41.57;98484.63;4903223;29;20028;-68
2023/07/07 04:11:49;;;;;;;14.63;4.00;;;;;;;29.16;41.96;98497.53;4918643;29;20043;-68
2023/07/07 04:14:14;;;;;;;13.25;4.07;;;;;;;29.05;42.91;98496.59;4935437;29;20031;-68
2023/07/07 04:16:40;;;;;;;9.82;4.15;;;;;;;28.98;42.50;98494.03;4935533;29;20074;-69
2023/07/07 04:19:05;;;;;;;13.57;7.75;;;;;;;28.97;42.34;98492.44;4917913;29;20562;-69
2023/07/07 04:21:32;;;;;;;22.80;16.67;;;;;;;28.98;42.40;98491.34;4902671;29;20510;-75
2023/07/07 04:23:59;;;;;;;28.67;19.67;;;;;;;28.98;43.49;98499.41;4918353;29;20043;-70
2023/07/07 04:26:25;;;;;;;20.33;10.23;;;;;;;29.01;42.45;98495.44;4902675;29;20444;-70
2023/07/07 04:28:51;;;;;;;17.02;11.25;;;;;;;29.08;42.80;98493.38;4934241;29;20043;-73
2023/07/07 04:31:17;;;;;;;15.80;7.63;;;;;;;28.99;43.23;98495.66;4902574;29;20079;-72
2023/07/07 04:33:43;;;;;;;13.82;7.80;;;;;;;29.02;43.43;98499.75;4918160;29;20046;-71
2023/07/07 04:36:09;;;;;;;26.38;6.68;;;;;;;29.12;42.73;98499.09;4917484;29;20055;-65
2023/07/07 04:38:35;;;;;;;15.73;6.03;;;;;;;29.27;42.52;98495.88;4935044;29;20058;-67
2023/07/07 04:41:04;;;;;;;9.23;5.20;;;;;;;29.65;41.88;98495.13;4935354;29;20039;-67
2023/07/07 04:43:30;;;;;;;13.60;6.80;;;;;;;31.47;39.52;98496.78;4934508;29;20409;-74
2023/07/07 04:45:55;;;;;;;16.92;6.30;;;;;;;31.13;40.38;98489.00;4917787;29;20051;-77
2023/07/07 04:48:21;;;;;;;17.25;6.03;;;;;;;31.30;40.07;98489.66;4917311;29;20418;-73
2023/07/07 04:50:46;;;;;;;12.98;6.13;;;;;;;31.39;40.12;98488.13;4917127;29;20388;-75
2023/07/07 04:53:12;;;;;;;13.98;5.95;;;;;;;31.88;39.40;98505.13;4917818;29;20043;-77
2023/07/07 04:55:42;;;;;;;12.30;5.30;;;;;;;34.02;35.08;98494.03;4900768;29;20098;-79
2023/07/07 04:58:08;;;;;;;11.70;5.28;;;;;;;35.32;32.90;98495.69;4898117;29;20036;-84
2023/07/07 05:00:33;;;;;;;12.55;5.13;;;;;;;34.95;33.25;98502.50;4899466;29;20144;-83
2023/07/07 05:02:59;;;;;;;18.65;5.15;;;;;;;36.56;31.22;98506.78;4933327;29;20439;-85
2023/07/07 05:05:24;;;;;;;18.33;5.28;;;;;;;37.64;29.77;98502.31;4902520;29;20483;-82
2023/07/07 05:07:50;;;;;;;19.30;4.72;;;;;;;38.63;27.88;98510.13;4917952;29;20479;-79
2023/07/07 05:10:15;;;;;;;21.17;4.68;;;;;;;39.43;26.06;98512.31;4917922;29;20164;-81
2023/07/07 05:12:41;;;;;;;28.02;4.15;;;;;;;40.09;24.69;98503.44;4890354;29;20051;-80
2023/07/07 05:15:07;;;;;;;16.63;3.80;;;;;;;40.70;23.63;98509.78;4899039;29;20036;-76
2023/07/07 05:17:32;;;;;;;19.33;3.95;;;;;;;41.68;22.76;98512.03;4883014;29;20491;-81
2023/07/07 05:19:58;;;;;;;15.40;3.55;;;;;;;42.37;22.00;98515.56;4882355;29;20036;-79
2023/07/07 05:22:23;;;;;;;13.82;3.85;;;;;;;42.99;20.96;98513.16;4896369;29;20103;-79
2023/07/07 05:24:48;;;;;;;24.27;4.23;;;;;;;43.50;20.14;98511.00;4896463;29;20028;-78
2023/07/07 05:27:14;;;;;;;24.47;3.57;;;;;;;44.11;19.16;98511.34;4898043;29;20222;-78
